ěÝzenÝ letovÚho provozu ╚eskÚ republiky
Letiste: LKCV Aktualizace: 25.01.2022 10:00:29  UTC
 METAR LKCV 25.01. 10:00 ...
METAR LKCV 251000Z 26008KT 9999 BKN015 OVC022 02/00 Q1031 NOSIG RMK WHT WHT=
 TAF LKCV 25.01. 05:00 ...
TAF LKCV 250500Z 2506/2606 24006KT 9999 BKN015 OVC022      TEMPO 2506/2516 4000 RA OVC009      PROB30 TEMPO 2506/2509 2000 DZ BR OVC005      BECMG 2507/2509 30008KT      TEMPO 2509/2520 32013KT=